createdAt,value
2018-06-22T00:00:40.155Z,642.17
2018-06-22T00:03:08.789Z,626.80
2018-06-22T00:05:38.450Z,639.75
2018-06-22T00:08:07.169Z,610.93
2018-06-22T00:10:35.945Z,631.45
2018-06-22T00:13:04.557Z,638.15
2018-06-22T00:15:33.202Z,642.75
2018-06-22T00:18:02.962Z,635.30
2018-06-22T00:20:31.574Z,633.67
2018-06-22T00:23:00.603Z,619.65
2018-06-22T00:25:30.369Z,606.45
2018-06-22T00:27:58.957Z,596.85
2018-06-22T00:30:27.601Z,582.88
2018-06-22T00:32:55.876Z,573.80
2018-06-22T00:35:24.570Z,582.47
2018-06-22T00:37:55.260Z,585.55
2018-06-22T00:40:23.933Z,585.95
2018-06-22T00:42:53.573Z,578.40
2018-06-22T00:45:22.148Z,584.90
2018-06-22T00:47:56.281Z,556.40
2018-06-22T00:50:24.913Z,552.10
2018-06-22T00:52:57.408Z,579.08
2018-06-22T00:55:26.184Z,565.08
2018-06-22T00:57:54.772Z,561.52
2018-06-22T01:00:23.447Z,571.12
2018-06-22T01:02:53.048Z,604.02
2018-06-22T01:05:24.101Z,590.90
2018-06-22T01:07:53.149Z,562.25
2018-06-22T01:10:23.812Z,554.17
2018-06-22T01:12:54.440Z,549.67
2018-06-22T01:15:24.082Z,557.50
2018-06-22T01:17:52.802Z,570.05
2018-06-22T01:20:21.402Z,517.92
2018-06-22T01:22:50.065Z,560.17
2018-06-22T01:25:18.801Z,553.30
2018-06-22T01:27:48.483Z,541.35
2018-06-22T01:30:21.127Z,537.20
2018-06-22T01:32:49.827Z,563.53
2018-06-22T01:35:20.386Z,557.33
2018-06-22T01:37:51.057Z,548.92
2018-06-22T01:40:21.668Z,548.97
2018-06-22T01:42:50.268Z,534.87
2018-06-22T01:45:19.037Z,519.40
2018-06-22T01:47:49.646Z,511.98
2018-06-22T01:50:18.357Z,493.05
2018-06-22T01:52:48.131Z,490.25
2018-06-22T01:55:17.775Z,491.38
2018-06-22T01:57:47.520Z,482.83
2018-06-22T02:00:16.141Z,477.65
2018-06-22T02:02:45.798Z,461.00
2018-06-22T02:05:15.133Z,451.10
2018-06-22T02:07:43.837Z,452.70
2018-06-22T02:10:13.563Z,452.62
2018-06-22T02:12:42.265Z,438.93
2018-06-22T02:15:11.094Z,420.18
2018-06-22T02:17:39.794Z,422.27
2018-06-22T02:20:09.518Z,435.93
2018-06-22T02:22:43.996Z,421.70
2018-06-22T02:25:13.813Z,422.30
2018-06-22T02:27:42.497Z,427.45
2018-06-22T02:30:11.196Z,436.95
2018-06-22T02:32:40.909Z,269.27
2018-06-22T02:35:10.698Z,99.97
2018-06-22T02:37:39.628Z,275.10
2018-06-22T02:40:08.289Z,366.38
2018-06-22T02:42:37.460Z,357.70
2018-06-22T02:45:06.180Z,367.95
2018-06-22T02:47:36.542Z,320.55
2018-06-22T02:50:05.265Z,103.95
2018-06-22T02:52:34.900Z,129.27
2018-06-22T02:55:03.559Z,251.90
2018-06-22T02:57:33.149Z,249.27
2018-06-22T03:00:01.952Z,300.43
2018-06-22T03:02:31.649Z,282.87
2018-06-22T03:05:00.401Z,273.95
2018-06-22T03:07:29.052Z,249.75
2018-06-22T03:09:57.701Z,286.55
2018-06-22T03:12:26.351Z,246.70
2018-06-22T03:14:55.093Z,123.72
2018-06-22T03:17:23.783Z,232.20
2018-06-22T03:19:52.441Z,225.00
2018-06-22T03:22:22.093Z,139.50
2018-06-22T03:24:51.752Z,190.90
2018-06-22T03:27:20.503Z,179.47
2018-06-22T03:29:49.380Z,215.87
2018-06-22T03:32:18.998Z,163.68
2018-06-22T03:34:47.865Z,81.10
2018-06-22T03:37:16.503Z,132.75
2018-06-22T03:39:45.761Z,83.45
2018-06-22T03:42:15.116Z,107.43
2018-06-22T03:44:44.851Z,116.28
2018-06-22T03:47:15.462Z,74.65
2018-06-22T03:49:45.134Z,88.25
2018-06-22T03:52:14.904Z,78.78
2018-06-22T03:54:43.617Z,79.92
2018-06-22T03:57:12.229Z,68.72
2018-06-22T03:59:45.033Z,140.37
2018-06-22T04:02:13.695Z,194.67
2018-06-22T04:04:42.363Z,149.32
2018-06-22T04:07:11.080Z,159.60
2018-06-22T04:09:39.880Z,166.12
2018-06-22T04:12:09.214Z,205.03
2018-06-22T04:14:38.956Z,198.28
2018-06-22T04:17:07.628Z,211.80
2018-06-22T04:19:36.295Z,226.12
2018-06-22T04:22:06.163Z,152.40
2018-06-22T04:24:38.537Z,206.60
2018-06-22T04:27:07.967Z,224.02
2018-06-22T04:29:36.628Z,206.63
2018-06-22T04:32:05.337Z,207.98
2018-06-22T04:34:34.056Z,247.20
2018-06-22T04:37:02.689Z,238.25
2018-06-22T04:39:31.361Z,177.70
2018-06-22T04:42:04.121Z,207.57
2018-06-22T04:44:32.773Z,173.82
2018-06-22T04:47:01.537Z,74.45
2018-06-22T04:49:30.202Z,72.37
2018-06-22T04:51:58.932Z,87.35
2018-06-22T04:54:28.618Z,108.77
2018-06-22T04:56:57.417Z,64.17
2018-06-22T04:59:26.171Z,63.00
2018-06-22T05:01:54.881Z,104.55
2018-06-22T05:04:23.613Z,116.75
2018-06-22T05:06:52.333Z,135.20
2018-06-22T05:09:21.053Z,91.80
2018-06-22T05:11:49.816Z,81.78
2018-06-22T05:14:18.462Z,97.95
2018-06-22T05:16:47.144Z,116.20
2018-06-22T05:19:16.846Z,82.05
2018-06-22T05:21:45.523Z,103.47
2018-06-22T05:24:14.188Z,99.97
2018-06-22T05:26:43.958Z,79.50
2018-06-22T05:29:13.595Z,3.67
2018-06-22T05:31:42.284Z,14.80
2018-06-22T05:34:11.904Z,36.80
2018-06-22T05:36:40.541Z,60.33
2018-06-22T05:39:11.316Z,30.75
2018-06-22T05:41:41.975Z,30.30
2018-06-22T05:44:10.863Z,51.88
2018-06-22T05:46:43.503Z,51.40
2018-06-22T05:49:12.159Z,80.28
2018-06-22T05:51:40.855Z,105.83
2018-06-22T05:54:09.598Z,121.13
2018-06-22T05:56:39.247Z,158.05
2018-06-22T05:59:09.025Z,107.40
2018-06-22T06:01:38.520Z,111.40
2018-06-22T06:04:08.171Z,161.75
2018-06-22T06:06:38.823Z,162.80
2018-06-22T06:09:08.931Z,241.17
2018-06-22T06:11:38.672Z,207.25
2018-06-22T06:14:07.395Z,214.68
2018-06-22T06:16:36.474Z,217.03
2018-06-22T06:19:05.760Z,233.57
2018-06-22T06:21:34.428Z,185.60
2018-06-22T06:24:03.268Z,235.80
2018-06-22T06:26:33.871Z,255.47
2018-06-22T06:29:02.614Z,290.10
2018-06-22T06:31:35.233Z,248.72
2018-06-22T06:34:04.020Z,199.05
2018-06-22T06:36:32.736Z,176.37
2018-06-22T06:39:01.462Z,194.17
2018-06-22T06:41:32.006Z,220.67
2018-06-22T06:44:01.247Z,249.52
2018-06-22T06:46:29.863Z,214.93
2018-06-22T06:48:59.574Z,280.42
2018-06-22T06:51:29.272Z,257.55
2018-06-22T06:53:58.954Z,260.27
2018-06-22T06:56:27.690Z,294.93
2018-06-22T06:58:56.328Z,316.65
2018-06-22T07:01:26.014Z,390.98
2018-06-22T07:03:55.023Z,407.23
2018-06-22T07:06:23.807Z,440.45
2018-06-22T07:08:52.491Z,543.55
2018-06-22T07:11:21.170Z,525.25
2018-06-22T07:13:51.781Z,615.42
2018-06-22T07:16:20.452Z,627.15
2018-06-22T07:18:49.378Z,573.67
2018-06-22T07:21:18.020Z,611.93
2018-06-22T07:23:47.633Z,643.80
2018-06-22T07:26:16.401Z,657.75
2018-06-22T07:28:45.072Z,698.73
2018-06-22T07:31:13.816Z,678.48
2018-06-22T07:33:42.695Z,683.98
2018-06-22T07:36:11.344Z,697.33
2018-06-22T07:38:40.036Z,677.60
2018-06-22T07:41:08.804Z,658.45
2018-06-22T07:43:39.872Z,643.95
2018-06-22T07:46:08.539Z,667.40
2018-06-22T07:48:37.254Z,670.38
2018-06-22T07:51:06.985Z,656.73
2018-06-22T07:53:35.702Z,680.00
2018-06-22T07:56:04.476Z,666.35
2018-06-22T07:58:33.166Z,649.42
2018-06-22T08:01:01.977Z,643.83
2018-06-22T08:03:30.658Z,695.85
2018-06-22T08:05:59.389Z,718.08
2018-06-22T08:08:29.147Z,524.20
2018-06-22T08:10:57.872Z,659.20
2018-06-22T08:13:26.650Z,672.40
2018-06-22T08:15:55.357Z,678.65
2018-06-22T08:18:24.176Z,691.05
2018-06-22T08:20:52.887Z,690.27
2018-06-22T08:23:21.657Z,672.92
2018-06-22T08:25:50.338Z,679.90
2018-06-22T08:28:18.958Z,390.23
2018-06-22T08:30:47.707Z,462.65
2018-06-22T08:33:16.403Z,205.80
2018-06-22T08:35:45.237Z,577.10
2018-06-22T08:38:13.941Z,576.20
2018-06-22T08:40:42.888Z,530.90
2018-06-22T08:43:12.569Z,542.77
2018-06-22T08:45:41.232Z,463.65
2018-06-22T08:48:09.892Z,525.98
2018-06-22T08:50:38.587Z,545.57
2018-06-22T08:53:08.225Z,562.27
2018-06-22T08:55:36.944Z,703.65
2018-06-22T08:58:05.664Z,661.10
2018-06-22T09:00:34.248Z,638.90
2018-06-22T09:03:02.909Z,551.87
2018-06-22T09:05:32.339Z,565.52
2018-06-22T09:08:01.007Z,572.15
2018-06-22T09:10:29.683Z,596.47
2018-06-22T09:12:58.318Z,555.13
2018-06-22T09:15:26.956Z,544.52
2018-06-22T09:17:56.298Z,525.33
2018-06-22T09:20:26.013Z,561.83
2018-06-22T09:22:54.607Z,591.87
2018-06-22T09:25:23.238Z,516.55
2018-06-22T09:27:52.082Z,475.15
2018-06-22T09:30:21.787Z,520.23
2018-06-22T09:32:50.485Z,669.30
2018-06-22T09:35:19.079Z,479.42
2018-06-22T09:37:47.771Z,375.70
2018-06-22T09:40:16.395Z,466.42
2018-06-22T09:42:46.076Z,498.57
2018-06-22T09:45:14.748Z,537.67
2018-06-22T09:47:44.540Z,609.52
2018-06-22T09:50:13.167Z,573.03
2018-06-22T09:52:41.833Z,551.30
2018-06-22T09:55:12.601Z,496.42
2018-06-22T09:57:41.171Z,489.78
2018-06-22T10:00:10.960Z,420.57
2018-06-22T10:02:40.665Z,410.17
2018-06-22T10:05:10.404Z,442.97
2018-06-22T10:07:39.154Z,374.67
2018-06-22T10:10:07.909Z,395.33
2018-06-22T10:12:36.594Z,435.97
2018-06-22T10:15:05.317Z,591.58
2018-06-22T10:17:36.052Z,619.05
2018-06-22T10:20:04.781Z,537.10
2018-06-22T10:22:33.497Z,456.00
2018-06-22T10:25:02.293Z,485.65
2018-06-22T10:27:30.953Z,452.52
2018-06-22T10:29:59.722Z,499.42
2018-06-22T10:32:29.404Z,308.80
2018-06-22T10:34:58.144Z,296.48
2018-06-22T10:37:26.924Z,380.55
2018-06-22T10:39:56.241Z,333.30
2018-06-22T10:42:24.948Z,437.85
2018-06-22T10:44:53.758Z,424.37
2018-06-22T10:47:22.391Z,401.77
2018-06-22T10:49:51.120Z,330.10
2018-06-22T10:52:19.862Z,327.68
2018-06-22T10:54:48.668Z,264.30
2018-06-22T10:57:17.482Z,2.72
2018-06-22T10:59:46.832Z,2.80
2018-06-22T11:02:15.746Z,298.90
2018-06-22T11:04:45.453Z,399.87
2018-06-22T11:07:14.259Z,27.32
2018-06-22T11:09:43.036Z,2.55
2018-06-22T11:12:12.680Z,2.27
2018-06-22T11:14:41.368Z,2.30
2018-06-22T11:17:10.139Z,3.33
2018-06-22T11:19:38.844Z,2.17
2018-06-22T11:22:07.561Z,3.07
2018-06-22T11:24:36.915Z,2.40
2018-06-22T11:27:06.139Z,2.70
2018-06-22T11:29:34.900Z,2.73
2018-06-22T11:32:03.556Z,2.87
2018-06-22T11:34:32.200Z,2.53
2018-06-22T11:37:01.928Z,1.97
2018-06-22T11:39:30.600Z,1.70
2018-06-22T11:41:59.309Z,2.20
2018-06-22T11:44:28.044Z,2.07
2018-06-22T11:46:56.864Z,2.03
2018-06-22T11:49:25.460Z,2.10
2018-06-22T11:51:55.100Z,2.17
2018-06-22T11:54:24.573Z,1.87
2018-06-22T11:56:55.279Z,1.77
2018-06-22T11:59:24.022Z,1.70
2018-06-22T12:01:53.362Z,1.53
2018-06-22T12:04:21.993Z,1.90
2018-06-22T12:06:50.668Z,1.77
2018-06-22T12:09:19.406Z,1.60
2018-06-22T12:11:49.096Z,1.77
2018-06-22T12:14:17.712Z,1.93
2018-06-22T12:16:46.695Z,1.87
2018-06-22T12:19:15.429Z,2.30
2018-06-22T12:21:44.072Z,2.10
2018-06-22T12:24:12.706Z,1.90
2018-06-22T12:26:41.451Z,1.60
2018-06-22T12:29:10.117Z,2.00
2018-06-22T12:31:39.999Z,1.70
2018-06-22T12:34:08.610Z,1.93
2018-06-22T12:36:37.506Z,1.90
2018-06-22T12:39:10.059Z,1.70
2018-06-22T12:41:38.838Z,1.77
2018-06-22T12:44:07.460Z,2.00
2018-06-22T12:46:36.513Z,2.10
2018-06-22T12:49:06.219Z,1.60
2018-06-22T12:51:35.852Z,1.40
2018-06-22T12:54:04.524Z,1.20
2018-06-22T12:56:33.210Z,1.40
2018-06-22T12:59:02.902Z,1.20
2018-06-22T13:01:34.661Z,1.93
2018-06-22T13:04:03.393Z,1.40
2018-06-22T17:10:15.986Z,0.90
2018-06-22T17:12:50.728Z,0.90
2018-06-22T17:15:24.651Z,1.00
2018-06-22T17:17:59.699Z,0.90
2018-06-22T17:20:28.513Z,0.67
2018-06-22T17:22:57.965Z,0.83
2018-06-22T17:25:26.781Z,1.00
2018-06-22T17:27:56.066Z,1.00
2018-06-22T17:30:28.810Z,0.80
2018-06-22T17:32:57.546Z,0.73
2018-06-22T17:35:26.528Z,0.83
2018-06-22T17:37:55.246Z,1.53
2018-06-22T17:40:25.210Z,1.07
2018-06-22T17:42:55.099Z,1.40
2018-06-22T17:45:23.875Z,0.70
2018-06-22T17:47:53.139Z,0.70
2018-06-22T17:50:27.236Z,0.80
2018-06-22T17:52:57.376Z,1.07
2018-06-22T17:55:27.003Z,1.03
2018-06-22T17:57:55.804Z,1.10
2018-06-22T18:01:28.467Z,1.20
2018-06-22T18:04:02.416Z,1.80
2018-06-22T18:06:38.362Z,1.00
2018-06-22T18:09:09.086Z,0.80
2018-06-22T18:11:44.934Z,1.10
2018-06-22T18:14:14.942Z,1.10
2018-06-22T18:16:44.670Z,1.00
2018-06-22T18:19:13.568Z,1.40
2018-06-22T18:21:42.383Z,0.87
2018-06-22T18:24:11.201Z,0.90
2018-06-22T18:26:39.987Z,1.00
2018-06-22T18:29:09.152Z,0.90
2018-06-22T18:31:38.090Z,0.87
2018-06-22T18:34:08.388Z,0.80
2018-06-22T18:36:38.316Z,0.83
2018-06-22T18:39:11.327Z,1.00
2018-06-22T18:41:41.018Z,1.20
2018-06-22T18:44:14.077Z,0.90
2018-06-22T18:46:43.253Z,0.90
2018-06-22T18:49:13.124Z,0.87
2018-06-22T18:51:42.509Z,1.10
2018-06-22T18:54:17.890Z,1.27
2018-06-22T18:56:52.154Z,1.20
2018-06-22T18:59:26.137Z,1.03
2018-06-22T19:02:00.175Z,1.20
2018-06-22T19:04:28.895Z,1.10
2018-06-22T19:06:58.886Z,1.00
2018-06-22T19:09:29.282Z,0.90
2018-06-22T19:11:58.176Z,1.00
2018-06-22T19:14:26.914Z,1.27
2018-06-22T19:16:57.090Z,1.10
2018-06-22T19:19:25.902Z,1.17
2018-06-22T19:21:55.075Z,1.00
2018-06-22T19:24:24.224Z,1.10
2018-06-22T19:26:53.117Z,1.43
2018-06-22T19:29:21.915Z,1.10
2018-06-22T19:31:51.925Z,1.17
2018-06-22T19:34:27.172Z,1.00
2018-06-22T19:36:56.076Z,1.20
2018-06-22T19:39:24.878Z,1.40
2018-06-22T19:41:54.100Z,1.10
2018-06-22T19:44:29.081Z,1.33
2018-06-22T19:47:03.915Z,1.13
2018-06-22T19:49:40.229Z,1.30
2018-06-22T19:52:18.256Z,1.10
2018-06-22T19:54:49.254Z,1.20
2018-06-22T19:57:18.595Z,1.20
2018-06-22T19:59:49.654Z,1.40
2018-06-22T20:02:19.438Z,1.27
2018-06-22T20:04:49.413Z,1.23
2018-06-22T20:07:22.644Z,1.43
2018-06-22T20:09:51.429Z,1.10
2018-06-22T20:12:19.788Z,1.20
2018-06-22T20:14:48.749Z,1.37
2018-06-22T20:17:18.404Z,1.33
2018-06-22T20:19:47.151Z,1.27
2018-06-22T20:22:16.132Z,1.57
2018-06-22T20:24:54.887Z,1.47
2018-06-22T20:27:24.252Z,1.63
2018-06-22T20:29:57.081Z,1.10
2018-06-22T20:32:27.034Z,1.47
2018-06-22T20:35:01.130Z,1.00
2018-06-22T20:37:37.233Z,1.33
2018-06-22T20:40:11.253Z,1.53
2018-06-22T20:42:45.496Z,1.33
2018-06-22T20:45:19.386Z,1.30
2018-06-22T20:47:53.248Z,1.17
2018-06-22T20:50:28.228Z,1.73
2018-06-22T20:52:57.099Z,1.37
2018-06-22T20:55:26.095Z,1.30
2018-06-22T20:57:56.100Z,1.20
2018-06-22T21:00:24.998Z,1.40
2018-06-22T21:02:54.807Z,1.40
2018-06-22T21:05:24.845Z,1.30
2018-06-22T21:07:54.346Z,1.30
2018-06-22T21:10:23.256Z,1.70
2018-06-22T21:12:52.196Z,1.50
2018-06-22T21:15:20.865Z,1.43
2018-06-22T21:17:51.636Z,1.70
2018-06-22T21:20:20.434Z,1.73
2018-06-22T21:22:49.446Z,1.27
2018-06-22T21:25:19.602Z,1.43
2018-06-22T21:27:53.676Z,1.57
2018-06-22T21:30:27.963Z,1.53
2018-06-22T21:33:02.155Z,1.33
2018-06-22T21:35:36.077Z,1.77
2018-06-22T21:38:11.205Z,1.50
2018-06-22T21:40:40.251Z,1.30
2018-06-22T21:43:10.078Z,1.50
2018-06-22T21:45:38.944Z,1.40
2018-06-22T21:48:07.900Z,1.57
2018-06-22T21:50:37.852Z,0.90
2018-06-22T21:53:06.839Z,1.50
2018-06-22T21:55:36.645Z,1.53
2018-06-22T21:58:05.484Z,1.13
2018-06-22T22:00:35.342Z,1.30
2018-06-22T22:03:04.318Z,1.37
2018-06-22T22:05:34.190Z,1.60
2018-06-22T22:08:02.982Z,1.30
2018-06-22T22:10:39.096Z,1.20
2018-06-22T22:13:07.997Z,1.70
2018-06-22T22:15:41.927Z,1.37
2018-06-22T22:21:08.513Z,1.30
2018-06-22T22:23:38.924Z,1.10
2018-06-22T22:26:08.937Z,1.00
2018-06-22T22:28:37.920Z,1.17
2018-06-22T22:31:07.842Z,1.03
2018-06-22T22:33:37.066Z,1.37
2018-06-22T22:36:05.889Z,1.20
2018-06-22T22:38:35.027Z,1.57
2018-06-22T22:41:04.303Z,1.00
2018-06-22T22:43:38.821Z,1.17
2018-06-22T22:46:09.083Z,1.00
2018-06-22T22:48:37.940Z,0.90
2018-06-22T22:51:07.095Z,1.40
2018-06-22T22:53:36.978Z,1.60
2018-06-22T22:56:05.944Z,1.43
2018-06-22T22:58:36.032Z,1.43
2018-06-22T23:01:06.205Z,1.37
2018-06-22T23:03:35.067Z,1.50
2018-06-22T23:06:05.949Z,1.50
2018-06-22T23:08:35.263Z,1.27
2018-06-22T23:11:05.283Z,1.43
2018-06-22T23:13:34.236Z,1.10
2018-06-22T23:16:03.098Z,1.20
2018-06-22T23:18:31.918Z,1.40
2018-06-22T23:21:01.865Z,1.43
2018-06-22T23:23:34.293Z,1.40
2018-06-22T23:26:04.953Z,1.87
2018-06-22T23:28:34.364Z,1.40
2018-06-22T23:31:06.266Z,1.77
2018-06-22T23:33:36.293Z,1.60
2018-06-22T23:36:07.692Z,1.20
2018-06-22T23:38:36.887Z,1.50
2018-06-22T23:41:05.804Z,1.20
2018-06-22T23:43:34.887Z,1.70
2018-06-22T23:46:05.948Z,1.50
2018-06-22T23:48:34.922Z,2.07
2018-06-22T23:51:04.632Z,1.70
2018-06-22T23:53:33.705Z,1.30
2018-06-22T23:56:03.778Z,1.50
2018-06-22T23:58:32.939Z,1.70
